sensor_id;sensor_type;location;lat;lon;timestamp;temperature;humidity
23291;DHT22;11814;44.686;10.842;2023-05-29T00:00:20;20.50;99.90
23291;DHT22;11814;44.686;10.842;2023-05-29T00:02:47;20.50;99.90
23291;DHT22;11814;44.686;10.842;2023-05-29T00:05:14;20.50;99.90
23291;DHT22;11814;44.686;10.842;2023-05-29T00:07:40;20.50;99.90
23291;DHT22;11814;44.686;10.842;2023-05-29T00:10:08;20.40;99.90
23291;DHT22;11814;44.686;10.842;2023-05-29T00:12:34;20.30;99.90
23291;DHT22;11814;44.686;10.842;2023-05-29T00:15:00;20.30;99.90
23291;DHT22;11814;44.686;10.842;2023-05-29T00:17:26;20.20;99.90
23291;DHT22;11814;44.686;10.842;2023-05-29T00:19:52;20.20;99.90
23291;DHT22;11814;44.686;10.842;2023-05-29T00:22:18;20.30;99.90
23291;DHT22;11814;44.686;10.842;2023-05-29T00:24:44;20.20;99.90
23291;DHT22;11814;44.686;10.842;2023-05-29T00:27:10;20.20;99.90
23291;DHT22;11814;44.686;10.842;2023-05-29T00:29:36;20.10;99.90
23291;DHT22;11814;44.686;10.842;2023-05-29T00:32:06;20.10;99.90
23291;DHT22;11814;44.686;10.842;2023-05-29T00:34:32;20.00;99.90
23291;DHT22;11814;44.686;10.842;2023-05-29T00:36:58;20.00;99.90
23291;DHT22;11814;44.686;10.842;2023-05-29T00:39:24;20.00;99.90
23291;DHT22;11814;44.686;10.842;2023-05-29T00:41:50;20.00;99.90
23291;DHT22;11814;44.686;10.842;2023-05-29T00:44:20;19.90;99.90
23291;DHT22;11814;44.686;10.842;2023-05-29T00:46:51;19.80;99.90
23291;DHT22;11814;44.686;10.842;2023-05-29T00:49:19;19.80;99.90
23291;DHT22;11814;44.686;10.842;2023-05-29T00:51:46;19.80;99.90
23291;DHT22;11814;44.686;10.842;2023-05-29T00:54:14;19.70;99.90
23291;DHT22;11814;44.686;10.842;2023-05-29T00:56:40;19.70;99.90
23291;DHT22;11814;44.686;10.842;2023-05-29T00:59:10;19.60;99.90
23291;DHT22;11814;44.686;10.842;2023-05-29T01:01:36;19.60;99.90
23291;DHT22;11814;44.686;10.842;2023-05-29T01:04:05;19.60;99.90
23291;DHT22;11814;44.686;10.842;2023-05-29T01:06:33;19.60;99.90
23291;DHT22;11814;44.686;10.842;2023-05-29T01:08:59;19.60;99.90
23291;DHT22;11814;44.686;10.842;2023-05-29T01:14:17;19.60;99.90
23291;DHT22;11814;44.686;10.842;2023-05-29T01:17:17;19.50;99.90
23291;DHT22;11814;44.686;10.842;2023-05-29T01:22:46;19.50;99.90
23291;DHT22;11814;44.686;10.842;2023-05-29T01:28:02;19.30;99.90
23291;DHT22;11814;44.686;10.842;2023-05-29T01:30:31;19.30;99.90
23291;DHT22;11814;44.686;10.842;2023-05-29T01:32:59;19.30;99.90
23291;DHT22;11814;44.686;10.842;2023-05-29T01:35:25;19.20;99.90
23291;DHT22;11814;44.686;10.842;2023-05-29T01:37:51;19.20;99.90
23291;DHT22;11814;44.686;10.842;2023-05-29T01:40:17;19.20;99.90
23291;DHT22;11814;44.686;10.842;2023-05-29T01:42:43;19.20;99.90
23291;DHT22;11814;44.686;10.842;2023-05-29T01:45:10;19.10;99.90
23291;DHT22;11814;44.686;10.842;2023-05-29T01:47:36;19.10;99.90
23291;DHT22;11814;44.686;10.842;2023-05-29T01:50:04;19.10;99.90
23291;DHT22;11814;44.686;10.842;2023-05-29T01:52:30;19.10;99.90
23291;DHT22;11814;44.686;10.842;2023-05-29T01:54:56;19.10;99.90
23291;DHT22;11814;44.686;10.842;2023-05-29T01:57:22;19.10;99.90
23291;DHT22;11814;44.686;10.842;2023-05-29T01:59:49;19.00;99.90
23291;DHT22;11814;44.686;10.842;2023-05-29T02:02:15;19.00;99.90
23291;DHT22;11814;44.686;10.842;2023-05-29T02:04:41;19.00;99.90
23291;DHT22;11814;44.686;10.842;2023-05-29T02:07:07;19.00;99.90
23291;DHT22;11814;44.686;10.842;2023-05-29T02:09:33;19.00;99.90
23291;DHT22;11814;44.686;10.842;2023-05-29T02:11:59;19.00;99.90
23291;DHT22;11814;44.686;10.842;2023-05-29T02:14:26;19.00;99.90
23291;DHT22;11814;44.686;10.842;2023-05-29T02:16:52;18.90;99.90
23291;DHT22;11814;44.686;10.842;2023-05-29T02:19:18;18.90;99.90
23291;DHT22;11814;44.686;10.842;2023-05-29T02:21:44;18.80;99.90
23291;DHT22;11814;44.686;10.842;2023-05-29T02:24:10;18.70;99.90
23291;DHT22;11814;44.686;10.842;2023-05-29T02:26:35;18.60;99.90
23291;DHT22;11814;44.686;10.842;2023-05-29T02:29:05;18.60;99.90
23291;DHT22;11814;44.686;10.842;2023-05-29T02:31:31;18.60;99.90
23291;DHT22;11814;44.686;10.842;2023-05-29T02:33:57;18.60;99.90
23291;DHT22;11814;44.686;10.842;2023-05-29T02:36:23;18.50;99.90
23291;DHT22;11814;44.686;10.842;2023-05-29T02:38:48;18.50;99.90
23291;DHT22;11814;44.686;10.842;2023-05-29T02:41:15;18.50;99.90
23291;DHT22;11814;44.686;10.842;2023-05-29T02:43:40;18.50;99.90
23291;DHT22;11814;44.686;10.842;2023-05-29T02:46:06;18.40;99.90
23291;DHT22;11814;44.686;10.842;2023-05-29T02:48:32;18.30;99.90
23291;DHT22;11814;44.686;10.842;2023-05-29T02:50:57;18.30;99.90
23291;DHT22;11814;44.686;10.842;2023-05-29T02:53:23;18.30;99.90
23291;DHT22;11814;44.686;10.842;2023-05-29T02:55:49;18.10;99.90
23291;DHT22;11814;44.686;10.842;2023-05-29T02:58:17;18.00;99.90
23291;DHT22;11814;44.686;10.842;2023-05-29T03:00:43;18.10;99.90
23291;DHT22;11814;44.686;10.842;2023-05-29T03:03:08;18.20;99.90
23291;DHT22;11814;44.686;10.842;2023-05-29T03:05:34;18.20;99.90
23291;DHT22;11814;44.686;10.842;2023-05-29T03:08:00;18.20;99.90
23291;DHT22;11814;44.686;10.842;2023-05-29T03:10:26;18.20;99.90
23291;DHT22;11814;44.686;10.842;2023-05-29T03:12:51;18.20;99.90
23291;DHT22;11814;44.686;10.842;2023-05-29T03:15:17;18.20;99.90
23291;DHT22;11814;44.686;10.842;2023-05-29T03:17:46;18.20;99.90
23291;DHT22;11814;44.686;10.842;2023-05-29T03:20:12;18.30;99.90
23291;DHT22;11814;44.686;10.842;2023-05-29T03:22:38;18.30;99.90
23291;DHT22;11814;44.686;10.842;2023-05-29T03:25:04;18.30;99.90
23291;DHT22;11814;44.686;10.842;2023-05-29T03:27:31;18.30;99.90
23291;DHT22;11814;44.686;10.842;2023-05-29T03:29:58;18.40;99.90
23291;DHT22;11814;44.686;10.842;2023-05-29T03:32:23;18.40;99.90
23291;DHT22;11814;44.686;10.842;2023-05-29T03:34:49;18.40;99.90
23291;DHT22;11814;44.686;10.842;2023-05-29T03:37:15;18.30;99.90
23291;DHT22;11814;44.686;10.842;2023-05-29T03:39:41;18.30;99.90
23291;DHT22;11814;44.686;10.842;2023-05-29T03:42:07;18.30;99.90
23291;DHT22;11814;44.686;10.842;2023-05-29T03:44:32;18.30;99.90
23291;DHT22;11814;44.686;10.842;2023-05-29T03:46:58;18.30;99.90
23291;DHT22;11814;44.686;10.842;2023-05-29T03:49:24;18.30;99.90
23291;DHT22;11814;44.686;10.842;2023-05-29T03:51:50;18.30;99.90
23291;DHT22;11814;44.686;10.842;2023-05-29T03:54:16;18.20;99.90
23291;DHT22;11814;44.686;10.842;2023-05-29T03:56:41;18.30;99.90
23291;DHT22;11814;44.686;10.842;2023-05-29T03:59:07;18.20;99.90
23291;DHT22;11814;44.686;10.842;2023-05-29T04:01:33;18.20;99.90
23291;DHT22;11814;44.686;10.842;2023-05-29T04:03:59;18.20;99.90
23291;DHT22;11814;44.686;10.842;2023-05-29T04:06:25;18.10;99.90
23291;DHT22;11814;44.686;10.842;2023-05-29T04:08:51;18.10;99.90
23291;DHT22;11814;44.686;10.842;2023-05-29T04:11:17;18.10;99.90
23291;DHT22;11814;44.686;10.842;2023-05-29T04:13:46;18.00;99.90
23291;DHT22;11814;44.686;10.842;2023-05-29T04:16:13;18.10;99.90
23291;DHT22;11814;44.686;10.842;2023-05-29T04:18:39;18.10;99.90
23291;DHT22;11814;44.686;10.842;2023-05-29T04:21:05;18.10;99.90
23291;DHT22;11814;44.686;10.842;2023-05-29T04:23:31;18.20;99.90
23291;DHT22;11814;44.686;10.842;2023-05-29T04:25:56;18.20;99.90
23291;DHT22;11814;44.686;10.842;2023-05-29T04:28:23;18.20;99.90
23291;DHT22;11814;44.686;10.842;2023-05-29T04:30:49;18.20;99.90
23291;DHT22;11814;44.686;10.842;2023-05-29T04:33:14;18.20;99.90
23291;DHT22;11814;44.686;10.842;2023-05-29T04:35:40;18.30;99.90
23291;DHT22;11814;44.686;10.842;2023-05-29T04:38:09;18.30;99.90
23291;DHT22;11814;44.686;10.842;2023-05-29T04:40:35;18.40;99.90
23291;DHT22;11814;44.686;10.842;2023-05-29T04:43:06;18.40;99.90
23291;DHT22;11814;44.686;10.842;2023-05-29T04:45:31;18.50;99.90
23291;DHT22;11814;44.686;10.842;2023-05-29T04:47:57;18.50;99.90
23291;DHT22;11814;44.686;10.842;2023-05-29T04:50:23;18.50;99.90
23291;DHT22;11814;44.686;10.842;2023-05-29T04:52:49;18.40;99.90
23291;DHT22;11814;44.686;10.842;2023-05-29T04:55:15;18.40;99.90
23291;DHT22;11814;44.686;10.842;2023-05-29T04:57:41;18.50;99.90
23291;DHT22;11814;44.686;10.842;2023-05-29T05:00:08;18.50;99.90
23291;DHT22;11814;44.686;10.842;2023-05-29T05:02:42;18.50;99.90
23291;DHT22;11814;44.686;10.842;2023-05-29T05:05:11;18.50;99.90
23291;DHT22;11814;44.686;10.842;2023-05-29T05:07:37;18.50;99.90
23291;DHT22;11814;44.686;10.842;2023-05-29T05:10:03;18.50;99.90
23291;DHT22;11814;44.686;10.842;2023-05-29T05:12:29;18.60;99.90
23291;DHT22;11814;44.686;10.842;2023-05-29T05:14:55;18.60;99.90
23291;DHT22;11814;44.686;10.842;2023-05-29T05:17:21;18.60;99.90
23291;DHT22;11814;44.686;10.842;2023-05-29T05:19:47;18.60;99.90
23291;DHT22;11814;44.686;10.842;2023-05-29T05:22:15;18.50;99.90
23291;DHT22;11814;44.686;10.842;2023-05-29T05:24:40;18.60;99.90
23291;DHT22;11814;44.686;10.842;2023-05-29T05:27:06;18.70;99.90
23291;DHT22;11814;44.686;10.842;2023-05-29T05:29:32;18.70;99.90
23291;DHT22;11814;44.686;10.842;2023-05-29T05:31:58;18.70;99.90
23291;DHT22;11814;44.686;10.842;2023-05-29T05:34:23;18.80;99.90
23291;DHT22;11814;44.686;10.842;2023-05-29T05:36:49;18.90;99.90
23291;DHT22;11814;44.686;10.842;2023-05-29T05:39:15;19.00;99.90
23291;DHT22;11814;44.686;10.842;2023-05-29T05:41:41;19.10;99.90
23291;DHT22;11814;44.686;10.842;2023-05-29T05:44:07;19.20;99.90
23291;DHT22;11814;44.686;10.842;2023-05-29T05:46:32;19.50;99.90
23291;DHT22;11814;44.686;10.842;2023-05-29T05:48:58;19.80;99.90
23291;DHT22;11814;44.686;10.842;2023-05-29T05:51:26;20.20;99.90
23291;DHT22;11814;44.686;10.842;2023-05-29T05:53:52;20.40;99.90
23291;DHT22;11814;44.686;10.842;2023-05-29T05:56:18;20.40;99.90
23291;DHT22;11814;44.686;10.842;2023-05-29T05:58:44;20.50;99.90
23291;DHT22;11814;44.686;10.842;2023-05-29T06:01:09;20.80;99.90
23291;DHT22;11814;44.686;10.842;2023-05-29T06:03:36;21.20;99.90
23291;DHT22;11814;44.686;10.842;2023-05-29T06:06:03;21.70;99.90
23291;DHT22;11814;44.686;10.842;2023-05-29T06:08:29;22.30;99.90
23291;DHT22;11814;44.686;10.842;2023-05-29T06:10:56;22.60;99.90
23291;DHT22;11814;44.686;10.842;2023-05-29T06:13:21;22.90;99.90
23291;DHT22;11814;44.686;10.842;2023-05-29T06:15:47;23.00;99.90
23291;DHT22;11814;44.686;10.842;2023-05-29T06:18:13;23.30;99.90
23291;DHT22;11814;44.686;10.842;2023-05-29T06:20:39;23.70;99.90
23291;DHT22;11814;44.686;10.842;2023-05-29T06:23:05;24.20;99.90
23291;DHT22;11814;44.686;10.842;2023-05-29T06:25:31;24.60;99.20
23291;DHT22;11814;44.686;10.842;2023-05-29T06:28:00;25.00;97.40
23291;DHT22;11814;44.686;10.842;2023-05-29T06:30:26;25.50;95.20
23291;DHT22;11814;44.686;10.842;2023-05-29T06:32:52;25.90;93.50
23291;DHT22;11814;44.686;10.842;2023-05-29T06:35:18;26.30;92.00
23291;DHT22;11814;44.686;10.842;2023-05-29T06:37:45;26.70;90.50
23291;DHT22;11814;44.686;10.842;2023-05-29T06:40:14;27.00;88.50
23291;DHT22;11814;44.686;10.842;2023-05-29T06:42:43;27.20;86.00
23291;DHT22;11814;44.686;10.842;2023-05-29T06:45:11;27.20;83.70
23291;DHT22;11814;44.686;10.842;2023-05-29T06:47:43;27.10;82.30
23291;DHT22;11814;44.686;10.842;2023-05-29T06:50:09;26.70;82.00
23291;DHT22;11814;44.686;10.842;2023-05-29T06:52:35;26.50;81.90
23291;DHT22;11814;44.686;10.842;2023-05-29T06:55:01;26.40;82.20
23291;DHT22;11814;44.686;10.842;2023-05-29T06:57:27;26.20;82.50
23291;DHT22;11814;44.686;10.842;2023-05-29T06:59:54;26.00;82.40
23291;DHT22;11814;44.686;10.842;2023-05-29T07:02:19;25.90;81.80
23291;DHT22;11814;44.686;10.842;2023-05-29T07:04:45;25.70;82.40
23291;DHT22;11814;44.686;10.842;2023-05-29T07:07:11;25.50;83.30
23291;DHT22;11814;44.686;10.842;2023-05-29T07:09:37;25.30;83.60
23291;DHT22;11814;44.686;10.842;2023-05-29T07:12:05;25.20;83.60
23291;DHT22;11814;44.686;10.842;2023-05-29T07:14:31;25.00;83.90
23291;DHT22;11814;44.686;10.842;2023-05-29T07:16:56;25.30;84.80
23291;DHT22;11814;44.686;10.842;2023-05-29T07:19:22;25.80;84.20
23291;DHT22;11814;44.686;10.842;2023-05-29T07:21:48;26.40;82.90
23291;DHT22;11814;44.686;10.842;2023-05-29T07:24:14;26.90;80.80
23291;DHT22;11814;44.686;10.842;2023-05-29T07:26:40;27.00;78.90
23291;DHT22;11814;44.686;10.842;2023-05-29T07:29:06;26.80;78.20
23291;DHT22;11814;44.686;10.842;2023-05-29T07:31:31;26.60;78.70
23291;DHT22;11814;44.686;10.842;2023-05-29T07:33:57;26.30;79.50
23291;DHT22;11814;44.686;10.842;2023-05-29T07:36:23;26.00;79.70
23291;DHT22;11814;44.686;10.842;2023-05-29T07:38:48;25.80;80.20
23291;DHT22;11814;44.686;10.842;2023-05-29T07:41:15;25.50;80.40
23291;DHT22;11814;44.686;10.842;2023-05-29T07:43:42;25.30;80.90
23291;DHT22;11814;44.686;10.842;2023-05-29T07:46:10;25.10;81.70
23291;DHT22;11814;44.686;10.842;2023-05-29T07:48:36;24.90;82.40
23291;DHT22;11814;44.686;10.842;2023-05-29T07:51:02;24.80;83.50
23291;DHT22;11814;44.686;10.842;2023-05-29T07:53:28;24.80;84.20
23291;DHT22;11814;44.686;10.842;2023-05-29T07:55:53;24.70;84.90
23291;DHT22;11814;44.686;10.842;2023-05-29T07:58:19;24.70;85.40
23291;DHT22;11814;44.686;10.842;2023-05-29T08:00:46;24.70;86.10
23291;DHT22;11814;44.686;10.842;2023-05-29T08:03:11;24.60;86.80
23291;DHT22;11814;44.686;10.842;2023-05-29T08:05:37;24.60;86.80
23291;DHT22;11814;44.686;10.842;2023-05-29T08:08:04;24.60;86.40
23291;DHT22;11814;44.686;10.842;2023-05-29T08:10:30;24.60;85.80
23291;DHT22;11814;44.686;10.842;2023-05-29T08:12:55;24.60;85.90
23291;DHT22;11814;44.686;10.842;2023-05-29T08:15:21;24.60;86.20
23291;DHT22;11814;44.686;10.842;2023-05-29T08:17:49;24.60;86.30
23291;DHT22;11814;44.686;10.842;2023-05-29T08:20:15;24.70;85.80
23291;DHT22;11814;44.686;10.842;2023-05-29T08:22:42;24.70;85.70
23291;DHT22;11814;44.686;10.842;2023-05-29T08:25:08;24.60;85.80
23291;DHT22;11814;44.686;10.842;2023-05-29T08:27:33;24.70;86.50
23291;DHT22;11814;44.686;10.842;2023-05-29T08:29:59;24.80;86.80
23291;DHT22;11814;44.686;10.842;2023-05-29T08:32:25;24.90;87.00
23291;DHT22;11814;44.686;10.842;2023-05-29T08:34:51;24.90;86.50
23291;DHT22;11814;44.686;10.842;2023-05-29T08:37:17;24.90;86.30
23291;DHT22;11814;44.686;10.842;2023-05-29T08:39:42;25.00;86.20
23291;DHT22;11814;44.686;10.842;2023-05-29T08:44:40;25.10;85.80
23291;DHT22;11814;44.686;10.842;2023-05-29T08:47:07;25.10;85.90
23291;DHT22;11814;44.686;10.842;2023-05-29T08:49:42;25.10;85.90
23291;DHT22;11814;44.686;10.842;2023-05-29T08:52:20;25.10;86.00
23291;DHT22;11814;44.686;10.842;2023-05-29T08:54:46;25.10;86.30
23291;DHT22;11814;44.686;10.842;2023-05-29T08:57:12;25.10;86.70
23291;DHT22;11814;44.686;10.842;2023-05-29T08:59:42;25.20;86.80
23291;DHT22;11814;44.686;10.842;2023-05-29T09:02:09;25.20;86.60
23291;DHT22;11814;44.686;10.842;2023-05-29T09:04:35;25.30;86.50
23291;DHT22;11814;44.686;10.842;2023-05-29T09:07:00;25.40;86.20
23291;DHT22;11814;44.686;10.842;2023-05-29T09:09:29;25.30;85.70
23291;DHT22;11814;44.686;10.842;2023-05-29T09:11:56;25.30;85.80
23291;DHT22;11814;44.686;10.842;2023-05-29T09:14:38;25.30;86.10
23291;DHT22;11814;44.686;10.842;2023-05-29T09:17:06;25.30;86.10
23291;DHT22;11814;44.686;10.842;2023-05-29T09:19:34;25.30;85.90
23291;DHT22;11814;44.686;10.842;2023-05-29T09:24:34;25.40;85.70
23291;DHT22;11814;44.686;10.842;2023-05-29T09:27:02;25.40;86.00
23291;DHT22;11814;44.686;10.842;2023-05-29T09:29:42;25.50;86.40
23291;DHT22;11814;44.686;10.842;2023-05-29T09:32:15;25.50;85.80
23291;DHT22;11814;44.686;10.842;2023-05-29T09:34:43;25.60;85.70
23291;DHT22;11814;44.686;10.842;2023-05-29T09:37:11;25.60;85.20
23291;DHT22;11814;44.686;10.842;2023-05-29T09:39:47;25.70;84.70
23291;DHT22;11814;44.686;10.842;2023-05-29T09:42:14;25.70;84.10
23291;DHT22;11814;44.686;10.842;2023-05-29T09:44:41;25.70;84.20
23291;DHT22;11814;44.686;10.842;2023-05-29T09:47:08;25.90;84.50
23291;DHT22;11814;44.686;10.842;2023-05-29T09:49:34;26.00;84.70
23291;DHT22;11814;44.686;10.842;2023-05-29T09:52:00;25.90;84.10
23291;DHT22;11814;44.686;10.842;2023-05-29T09:54:29;26.00;83.50
23291;DHT22;11814;44.686;10.842;2023-05-29T09:56:56;26.10;82.90
23291;DHT22;11814;44.686;10.842;2023-05-29T09:59:24;26.00;82.90
23291;DHT22;11814;44.686;10.842;2023-05-29T10:02:03;26.20;83.40
23291;DHT22;11814;44.686;10.842;2023-05-29T10:04:35;26.30;82.60
23291;DHT22;11814;44.686;10.842;2023-05-29T10:07:15;26.20;82.00
23291;DHT22;11814;44.686;10.842;2023-05-29T10:09:47;26.20;81.70
23291;DHT22;11814;44.686;10.842;2023-05-29T10:12:19;26.30;81.80
23291;DHT22;11814;44.686;10.842;2023-05-29T10:14:49;26.30;82.00
23291;DHT22;11814;44.686;10.842;2023-05-29T10:17:15;26.40;81.70
23291;DHT22;11814;44.686;10.842;2023-05-29T10:19:43;26.50;81.90
23291;DHT22;11814;44.686;10.842;2023-05-29T10:22:12;26.50;80.80
23291;DHT22;11814;44.686;10.842;2023-05-29T10:24:38;26.60;80.70
23291;DHT22;11814;44.686;10.842;2023-05-29T10:27:04;26.60;80.00
23291;DHT22;11814;44.686;10.842;2023-05-29T10:29:43;26.70;79.00
23291;DHT22;11814;44.686;10.842;2023-05-29T10:35:27;26.80;78.50
23291;DHT22;11814;44.686;10.842;2023-05-29T10:38:08;26.90;79.00
23291;DHT22;11814;44.686;10.842;2023-05-29T10:40:34;27.00;78.20
23291;DHT22;11814;44.686;10.842;2023-05-29T10:43:00;27.00;77.90
23291;DHT22;11814;44.686;10.842;2023-05-29T10:53:14;26.70;74.70
23291;DHT22;11814;44.686;10.842;2023-05-29T10:55:41;26.70;73.30
23291;DHT22;11814;44.686;10.842;2023-05-29T10:58:23;26.80;72.40
23291;DHT22;11814;44.686;10.842;2023-05-29T11:00:54;26.80;70.80
23291;DHT22;11814;44.686;10.842;2023-05-29T11:03:29;26.90;69.80
23291;DHT22;11814;44.686;10.842;2023-05-29T11:05:57;27.00;68.80
23291;DHT22;11814;44.686;10.842;2023-05-29T11:08:42;27.20;68.20
23291;DHT22;11814;44.686;10.842;2023-05-29T11:11:12;27.20;67.50
23291;DHT22;11814;44.686;10.842;2023-05-29T11:13:39;27.30;67.70
23291;DHT22;11814;44.686;10.842;2023-05-29T11:18:52;27.50;67.00
23291;DHT22;11814;44.686;10.842;2023-05-29T11:24:03;27.50;65.90
23291;DHT22;11814;44.686;10.842;2023-05-29T11:26:30;27.60;64.70
23291;DHT22;11814;44.686;10.842;2023-05-29T11:29:01;27.60;64.40
23291;DHT22;11814;44.686;10.842;2023-05-29T11:31:28;27.60;63.90
23291;DHT22;11814;44.686;10.842;2023-05-29T11:33:59;27.60;63.40
23291;DHT22;11814;44.686;10.842;2023-05-29T11:36:26;27.70;63.20
23291;DHT22;11814;44.686;10.842;2023-05-29T11:38:53;27.70;63.30
23291;DHT22;11814;44.686;10.842;2023-05-29T11:41:18;27.80;63.20
23291;DHT22;11814;44.686;10.842;2023-05-29T11:43:44;27.80;62.40
23291;DHT22;11814;44.686;10.842;2023-05-29T11:46:20;27.80;61.70
23291;DHT22;11814;44.686;10.842;2023-05-29T11:48:47;27.80;61.50
23291;DHT22;11814;44.686;10.842;2023-05-29T11:51:13;27.80;61.80
23291;DHT22;11814;44.686;10.842;2023-05-29T11:53:43;27.80;61.50
23291;DHT22;11814;44.686;10.842;2023-05-29T11:56:12;27.80;61.90
23291;DHT22;11814;44.686;10.842;2023-05-29T11:58:41;27.90;61.90
23291;DHT22;11814;44.686;10.842;2023-05-29T12:01:08;27.90;61.40
23291;DHT22;11814;44.686;10.842;2023-05-29T12:03:41;27.90;61.00
23291;DHT22;11814;44.686;10.842;2023-05-29T12:06:08;27.90;60.70
23291;DHT22;11814;44.686;10.842;2023-05-29T12:08:34;28.00;60.80
23291;DHT22;11814;44.686;10.842;2023-05-29T12:11:00;27.90;60.00
23291;DHT22;11814;44.686;10.842;2023-05-29T12:13:26;28.00;60.10
23291;DHT22;11814;44.686;10.842;2023-05-29T12:15:56;28.00;59.90
23291;DHT22;11814;44.686;10.842;2023-05-29T12:18:22;28.00;60.60
23291;DHT22;11814;44.686;10.842;2023-05-29T12:20:48;28.00;60.80
23291;DHT22;11814;44.686;10.842;2023-05-29T12:23:14;28.10;61.20
23291;DHT22;11814;44.686;10.842;2023-05-29T12:25:40;28.10;61.60
23291;DHT22;11814;44.686;10.842;2023-05-29T12:28:06;28.20;59.70
23291;DHT22;11814;44.686;10.842;2023-05-29T12:30:36;28.20;58.50
23291;DHT22;11814;44.686;10.842;2023-05-29T12:33:02;28.20;58.70
23291;DHT22;11814;44.686;10.842;2023-05-29T12:35:29;28.20;58.40
23291;DHT22;11814;44.686;10.842;2023-05-29T12:38:04;28.20;58.20
23291;DHT22;11814;44.686;10.842;2023-05-29T12:40:31;28.20;58.70
23291;DHT22;11814;44.686;10.842;2023-05-29T12:43:06;28.20;58.70
23291;DHT22;11814;44.686;10.842;2023-05-29T12:45:34;28.10;58.90
23291;DHT22;11814;44.686;10.842;2023-05-29T12:48:05;28.10;58.80
23291;DHT22;11814;44.686;10.842;2023-05-29T12:50:35;28.00;58.40
23291;DHT22;11814;44.686;10.842;2023-05-29T12:53:05;27.90;58.10
23291;DHT22;11814;44.686;10.842;2023-05-29T12:55:34;27.80;58.00
23291;DHT22;11814;44.686;10.842;2023-05-29T12:58:08;27.90;58.20
23291;DHT22;11814;44.686;10.842;2023-05-29T13:00:36;27.90;58.30
23291;DHT22;11814;44.686;10.842;2023-05-29T13:03:02;28.00;58.50
23291;DHT22;11814;44.686;10.842;2023-05-29T13:05:28;28.20;58.50
23291;DHT22;11814;44.686;10.842;2023-05-29T13:07:54;28.10;58.30
23291;DHT22;11814;44.686;10.842;2023-05-29T13:10:20;28.10;58.10
23291;DHT22;11814;44.686;10.842;2023-05-29T13:12:47;28.10;58.10
23291;DHT22;11814;44.686;10.842;2023-05-29T13:15:14;28.10;58.20
23291;DHT22;11814;44.686;10.842;2023-05-29T13:17:40;28.20;58.20
23291;DHT22;11814;44.686;10.842;2023-05-29T13:20:10;28.30;57.60
23291;DHT22;11814;44.686;10.842;2023-05-29T13:22:37;28.40;56.70
23291;DHT22;11814;44.686;10.842;2023-05-29T13:25:03;28.40;56.10
23291;DHT22;11814;44.686;10.842;2023-05-29T13:27:32;28.40;56.00
23291;DHT22;11814;44.686;10.842;2023-05-29T13:29:59;28.40;55.90
23291;DHT22;11814;44.686;10.842;2023-05-29T13:32:25;28.30;55.30
23291;DHT22;11814;44.686;10.842;2023-05-29T13:34:50;28.30;55.80
23291;DHT22;11814;44.686;10.842;2023-05-29T13:37:16;28.40;55.90
23291;DHT22;11814;44.686;10.842;2023-05-29T13:39:42;28.50;56.30
23291;DHT22;11814;44.686;10.842;2023-05-29T13:42:08;28.60;56.70
23291;DHT22;11814;44.686;10.842;2023-05-29T13:44:34;28.70;56.30
23291;DHT22;11814;44.686;10.842;2023-05-29T13:47:00;28.70;56.30
23291;DHT22;11814;44.686;10.842;2023-05-29T13:49:26;28.70;56.80
23291;DHT22;11814;44.686;10.842;2023-05-29T13:51:52;28.80;57.00
23291;DHT22;11814;44.686;10.842;2023-05-29T13:54:17;28.80;56.50
23291;DHT22;11814;44.686;10.842;2023-05-29T13:56:43;28.60;56.80
23291;DHT22;11814;44.686;10.842;2023-05-29T13:59:09;28.50;57.30
23291;DHT22;11814;44.686;10.842;2023-05-29T14:01:35;28.50;57.40
23291;DHT22;11814;44.686;10.842;2023-05-29T14:04:01;28.50;57.40
23291;DHT22;11814;44.686;10.842;2023-05-29T14:06:27;28.60;57.40
23291;DHT22;11814;44.686;10.842;2023-05-29T14:08:53;28.70;57.00
23291;DHT22;11814;44.686;10.842;2023-05-29T14:11:19;28.70;56.60
23291;DHT22;11814;44.686;10.842;2023-05-29T14:13:45;28.70;56.70
23291;DHT22;11814;44.686;10.842;2023-05-29T14:16:11;28.80;56.40
23291;DHT22;11814;44.686;10.842;2023-05-29T14:18:37;28.80;56.80
23291;DHT22;11814;44.686;10.842;2023-05-29T14:21:02;28.90;57.40
23291;DHT22;11814;44.686;10.842;2023-05-29T14:23:28;28.90;57.10
23291;DHT22;11814;44.686;10.842;2023-05-29T14:25:54;28.80;56.80
23291;DHT22;11814;44.686;10.842;2023-05-29T14:28:20;28.70;57.20
23291;DHT22;11814;44.686;10.842;2023-05-29T14:30:45;28.50;56.30
23291;DHT22;11814;44.686;10.842;2023-05-29T14:33:11;28.50;56.70
23291;DHT22;11814;44.686;10.842;2023-05-29T14:35:37;28.50;56.50
23291;DHT22;11814;44.686;10.842;2023-05-29T14:38:02;28.50;56.00
23291;DHT22;11814;44.686;10.842;2023-05-29T14:40:28;28.60;55.10
23291;DHT22;11814;44.686;10.842;2023-05-29T14:42:56;28.60;55.30
23291;DHT22;11814;44.686;10.842;2023-05-29T14:45:22;28.70;56.30
23291;DHT22;11814;44.686;10.842;2023-05-29T14:47:47;28.80;56.60
23291;DHT22;11814;44.686;10.842;2023-05-29T14:50:13;28.80;56.60
23291;DHT22;11814;44.686;10.842;2023-05-29T14:52:40;28.80;56.60
23291;DHT22;11814;44.686;10.842;2023-05-29T14:55:06;28.80;56.40
23291;DHT22;11814;44.686;10.842;2023-05-29T14:57:32;28.80;56.40
23291;DHT22;11814;44.686;10.842;2023-05-29T15:00:03;28.80;56.50
23291;DHT22;11814;44.686;10.842;2023-05-29T15:02:31;28.80;56.20
23291;DHT22;11814;44.686;10.842;2023-05-29T15:04:57;28.80;55.80
23291;DHT22;11814;44.686;10.842;2023-05-29T15:07:23;28.80;55.50
23291;DHT22;11814;44.686;10.842;2023-05-29T15:09:48;28.80;55.30
23291;DHT22;11814;44.686;10.842;2023-05-29T15:12:14;28.80;55.50
23291;DHT22;11814;44.686;10.842;2023-05-29T15:14:40;28.90;56.00
23291;DHT22;11814;44.686;10.842;2023-05-29T15:17:06;28.90;55.80
23291;DHT22;11814;44.686;10.842;2023-05-29T15:19:31;28.90;55.60
23291;DHT22;11814;44.686;10.842;2023-05-29T15:21:57;28.90;55.30
23291;DHT22;11814;44.686;10.842;2023-05-29T15:24:23;28.80;55.40
23291;DHT22;11814;44.686;10.842;2023-05-29T15:26:49;28.70;55.50
23291;DHT22;11814;44.686;10.842;2023-05-29T15:29:16;28.60;55.60
23291;DHT22;11814;44.686;10.842;2023-05-29T15:31:42;28.70;56.00
23291;DHT22;11814;44.686;10.842;2023-05-29T15:34:08;28.70;55.90
23291;DHT22;11814;44.686;10.842;2023-05-29T15:36:34;28.70;56.20
23291;DHT22;11814;44.686;10.842;2023-05-29T15:39:02;28.80;56.70
23291;DHT22;11814;44.686;10.842;2023-05-29T15:41:28;28.70;56.10
23291;DHT22;11814;44.686;10.842;2023-05-29T15:43:57;28.70;55.70